Terminal Aerodrome Forecast
Issued by NWS Grand Forks, ND

Home | Current Version | Previous Version | Text Only | Print | Product List | Glossary On
Versions: 1 2 3 4 5 6 7 8 9 10 11 12 13 14 15 16
000
FTUS43 KFGF 261700
TAFGFK
TAF
KGFK 261735Z 2618/2718 27016G25KT P6SM BKN040
     FM262000 27019G28KT P6SM VCSH OVC050
     FM270000 29016G22KT P6SM VCSH OVC040
     FM270600 32014KT P6SM VCSH BKN035
     FM271400 35017G26KT P6SM BKN035=

USA.gov is the U.S. government's official web portal to all federal, state and local government web resources and services.